sensor_id;sensor_type;location;lat;lon;timestamp;P1;durP1;ratioP1;P2;durP2;ratioP2
65658;SDS011;60181;53.258;6.932;2023-07-13T00:00:43;7.60;;;2.40;;
65658;SDS011;60181;53.258;6.932;2023-07-13T00:04:47;7.60;;;2.40;;
65658;SDS011;60181;53.258;6.932;2023-07-13T00:08:51;7.60;;;2.40;;
65658;SDS011;60181;53.258;6.932;2023-07-13T00:12:55;7.60;;;2.50;;
65658;SDS011;60181;53.258;6.932;2023-07-13T00:16:59;7.60;;;2.50;;
65658;SDS011;60181;53.258;6.932;2023-07-13T00:21:03;9.30;;;2.30;;
65658;SDS011;60181;53.258;6.932;2023-07-13T00:25:08;9.30;;;2.30;;
65658;SDS011;60181;53.258;6.932;2023-07-13T00:29:11;9.30;;;2.30;;
65658;SDS011;60181;53.258;6.932;2023-07-13T00:33:15;7.70;;;2.40;;
65658;SDS011;60181;53.258;6.932;2023-07-13T00:37:19;7.70;;;2.40;;
65658;SDS011;60181;53.258;6.932;2023-07-13T00:41:23;7.50;;;2.40;;
65658;SDS011;60181;53.258;6.932;2023-07-13T00:49:31;7.50;;;2.40;;
65658;SDS011;60181;53.258;6.932;2023-07-13T00:53:35;7.30;;;2.20;;
65658;SDS011;60181;53.258;6.932;2023-07-13T00:57:39;7.30;;;2.20;;
65658;SDS011;60181;53.258;6.932;2023-07-13T01:01:43;8.10;;;2.30;;
65658;SDS011;60181;53.258;6.932;2023-07-13T01:05:47;8.10;;;2.30;;
65658;SDS011;60181;53.258;6.932;2023-07-13T01:09:51;8.10;;;2.30;;
65658;SDS011;60181;53.258;6.932;2023-07-13T01:13:55;7.90;;;2.50;;
65658;SDS011;60181;53.258;6.932;2023-07-13T01:17:59;7.90;;;2.50;;
65658;SDS011;60181;53.258;6.932;2023-07-13T01:22:04;6.70;;;2.30;;
65658;SDS011;60181;53.258;6.932;2023-07-13T01:26:07;6.70;;;2.30;;
65658;SDS011;60181;53.258;6.932;2023-07-13T01:30:11;11.70;;;2.70;;
65658;SDS011;60181;53.258;6.932;2023-07-13T01:34:15;11.70;;;2.70;;
65658;SDS011;60181;53.258;6.932;2023-07-13T01:38:20;11.70;;;2.70;;
65658;SDS011;60181;53.258;6.932;2023-07-13T01:42:23;14.00;;;2.80;;
65658;SDS011;60181;53.258;6.932;2023-07-13T01:46:27;14.00;;;2.80;;
65658;SDS011;60181;53.258;6.932;2023-07-13T01:50:31;9.10;;;2.50;;
65658;SDS011;60181;53.258;6.932;2023-07-13T01:54:35;9.10;;;2.50;;
65658;SDS011;60181;53.258;6.932;2023-07-13T01:58:39;9.10;;;2.50;;
65658;SDS011;60181;53.258;6.932;2023-07-13T02:02:43;14.20;;;2.80;;
65658;SDS011;60181;53.258;6.932;2023-07-13T02:06:47;14.20;;;2.80;;
65658;SDS011;60181;53.258;6.932;2023-07-13T02:10:51;13.50;;;2.70;;
65658;SDS011;60181;53.258;6.932;2023-07-13T02:14:55;13.50;;;2.70;;
65658;SDS011;60181;53.258;6.932;2023-07-13T02:18:59;13.50;;;2.70;;
65658;SDS011;60181;53.258;6.932;2023-07-13T02:23:03;12.30;;;2.90;;
65658;SDS011;60181;53.258;6.932;2023-07-13T02:27:07;12.30;;;2.90;;
65658;SDS011;60181;53.258;6.932;2023-07-13T02:31:12;13.30;;;2.80;;
65658;SDS011;60181;53.258;6.932;2023-07-13T02:35:15;13.30;;;2.80;;
65658;SDS011;60181;53.258;6.932;2023-07-13T02:39:19;13.30;;;2.80;;
65658;SDS011;60181;53.258;6.932;2023-07-13T02:43:23;14.90;;;2.90;;
65658;SDS011;60181;53.258;6.932;2023-07-13T02:47:27;14.90;;;2.90;;
65658;SDS011;60181;53.258;6.932;2023-07-13T02:51:31;14.80;;;2.70;;
65658;SDS011;60181;53.258;6.932;2023-07-13T02:55:35;14.80;;;2.70;;
65658;SDS011;60181;53.258;6.932;2023-07-13T02:59:39;14.80;;;2.70;;
65658;SDS011;60181;53.258;6.932;2023-07-13T03:03:42;11.40;;;2.90;;
65658;SDS011;60181;53.258;6.932;2023-07-13T03:07:46;11.40;;;2.90;;
65658;SDS011;60181;53.258;6.932;2023-07-13T03:11:54;17.30;;;3.00;;
65658;SDS011;60181;53.258;6.932;2023-07-13T03:15:54;17.30;;;3.00;;
65658;SDS011;60181;53.258;6.932;2023-07-13T03:19:58;17.30;;;3.00;;
65658;SDS011;60181;53.258;6.932;2023-07-13T03:24:03;15.50;;;3.20;;
65658;SDS011;60181;53.258;6.932;2023-07-13T03:28:06;15.50;;;3.20;;
65658;SDS011;60181;53.258;6.932;2023-07-13T03:32:10;12.60;;;2.70;;
65658;SDS011;60181;53.258;6.932;2023-07-13T03:36:17;12.60;;;2.70;;
65658;SDS011;60181;53.258;6.932;2023-07-13T03:40:19;12.50;;;2.80;;
65658;SDS011;60181;53.258;6.932;2023-07-13T03:44:22;12.50;;;2.80;;
65658;SDS011;60181;53.258;6.932;2023-07-13T03:48:26;12.50;;;2.80;;
65658;SDS011;60181;53.258;6.932;2023-07-13T03:52:30;12.60;;;2.70;;
65658;SDS011;60181;53.258;6.932;2023-07-13T03:56:34;12.60;;;2.70;;
65658;SDS011;60181;53.258;6.932;2023-07-13T04:00:38;11.20;;;2.70;;
65658;SDS011;60181;53.258;6.932;2023-07-13T04:04:43;11.20;;;2.70;;
65658;SDS011;60181;53.258;6.932;2023-07-13T04:08:47;11.20;;;2.70;;
65658;SDS011;60181;53.258;6.932;2023-07-13T04:12:50;13.70;;;2.90;;
65658;SDS011;60181;53.258;6.932;2023-07-13T04:16:54;13.70;;;2.90;;
65658;SDS011;60181;53.258;6.932;2023-07-13T04:20:58;11.20;;;2.60;;
65658;SDS011;60181;53.258;6.932;2023-07-13T04:25:03;11.20;;;2.60;;
65658;SDS011;60181;53.258;6.932;2023-07-13T04:29:07;11.20;;;2.60;;
65658;SDS011;60181;53.258;6.932;2023-07-13T04:33:11;14.90;;;2.50;;
65658;SDS011;60181;53.258;6.932;2023-07-13T04:37:14;14.90;;;2.50;;
65658;SDS011;60181;53.258;6.932;2023-07-13T04:41:19;15.60;;;3.00;;
65658;SDS011;60181;53.258;6.932;2023-07-13T04:45:23;15.60;;;3.00;;
65658;SDS011;60181;53.258;6.932;2023-07-13T04:49:26;15.60;;;3.00;;
65658;SDS011;60181;53.258;6.932;2023-07-13T04:53:31;14.90;;;2.60;;
65658;SDS011;60181;53.258;6.932;2023-07-13T04:57:34;14.90;;;2.60;;
65658;SDS011;60181;53.258;6.932;2023-07-13T05:01:38;11.20;;;2.50;;
65658;SDS011;60181;53.258;6.932;2023-07-13T05:05:42;11.20;;;2.50;;
65658;SDS011;60181;53.258;6.932;2023-07-13T05:09:46;11.20;;;2.50;;
65658;SDS011;60181;53.258;6.932;2023-07-13T05:13:50;7.70;;;2.50;;
65658;SDS011;60181;53.258;6.932;2023-07-13T05:17:54;7.70;;;2.50;;
65658;SDS011;60181;53.258;6.932;2023-07-13T05:21:58;12.40;;;2.70;;
65658;SDS011;60181;53.258;6.932;2023-07-13T05:26:03;12.40;;;2.70;;
65658;SDS011;60181;53.258;6.932;2023-07-13T05:30:07;16.10;;;2.90;;
65658;SDS011;60181;53.258;6.932;2023-07-13T05:34:10;16.10;;;2.90;;
65658;SDS011;60181;53.258;6.932;2023-07-13T05:38:14;16.10;;;2.90;;
65658;SDS011;60181;53.258;6.932;2023-07-13T05:42:18;15.80;;;2.90;;
65658;SDS011;60181;53.258;6.932;2023-07-13T05:46:22;15.80;;;2.90;;
65658;SDS011;60181;53.258;6.932;2023-07-13T05:50:26;13.00;;;2.80;;
65658;SDS011;60181;53.258;6.932;2023-07-13T05:54:30;13.00;;;2.80;;
65658;SDS011;60181;53.258;6.932;2023-07-13T05:58:34;13.00;;;2.80;;
65658;SDS011;60181;53.258;6.932;2023-07-13T06:02:38;18.10;;;3.30;;
65658;SDS011;60181;53.258;6.932;2023-07-13T06:06:42;18.10;;;3.30;;
65658;SDS011;60181;53.258;6.932;2023-07-13T06:10:46;16.20;;;2.90;;
65658;SDS011;60181;53.258;6.932;2023-07-13T06:14:50;16.20;;;2.90;;
65658;SDS011;60181;53.258;6.932;2023-07-13T06:18:54;16.20;;;2.90;;
65658;SDS011;60181;53.258;6.932;2023-07-13T06:22:58;18.30;;;3.70;;
65658;SDS011;60181;53.258;6.932;2023-07-13T06:27:03;18.30;;;3.70;;
65658;SDS011;60181;53.258;6.932;2023-07-13T06:31:07;33.00;;;7.60;;
65658;SDS011;60181;53.258;6.932;2023-07-13T06:35:10;33.00;;;7.60;;
65658;SDS011;60181;53.258;6.932;2023-07-13T06:39:14;33.00;;;7.60;;
65658;SDS011;60181;53.258;6.932;2023-07-13T06:43:18;24.90;;;5.40;;
65658;SDS011;60181;53.258;6.932;2023-07-13T06:47:22;24.90;;;5.40;;
65658;SDS011;60181;53.258;6.932;2023-07-13T06:51:26;16.80;;;4.20;;
65658;SDS011;60181;53.258;6.932;2023-07-13T06:55:30;16.80;;;4.20;;
65658;SDS011;60181;53.258;6.932;2023-07-13T06:59:34;16.80;;;4.20;;
65658;SDS011;60181;53.258;6.932;2023-07-13T07:03:38;17.70;;;4.10;;
65658;SDS011;60181;53.258;6.932;2023-07-13T07:07:42;17.70;;;4.10;;
65658;SDS011;60181;53.258;6.932;2023-07-13T07:11:46;16.60;;;3.30;;
65658;SDS011;60181;53.258;6.932;2023-07-13T07:15:50;16.60;;;3.30;;
65658;SDS011;60181;53.258;6.932;2023-07-13T07:19:54;16.60;;;3.30;;
65658;SDS011;60181;53.258;6.932;2023-07-13T07:23:58;18.30;;;3.40;;
65658;SDS011;60181;53.258;6.932;2023-07-13T07:28:02;18.30;;;3.40;;
65658;SDS011;60181;53.258;6.932;2023-07-13T07:32:06;15.60;;;3.30;;
65658;SDS011;60181;53.258;6.932;2023-07-13T07:36:10;15.60;;;3.30;;
65658;SDS011;60181;53.258;6.932;2023-07-13T07:40:14;11.50;;;2.80;;
65658;SDS011;60181;53.258;6.932;2023-07-13T07:44:18;11.50;;;2.80;;
65658;SDS011;60181;53.258;6.932;2023-07-13T07:48:22;11.50;;;2.80;;
65658;SDS011;60181;53.258;6.932;2023-07-13T07:52:26;10.70;;;2.60;;
65658;SDS011;60181;53.258;6.932;2023-07-13T07:56:30;10.70;;;2.60;;
65658;SDS011;60181;53.258;6.932;2023-07-13T08:00:34;12.70;;;2.80;;
65658;SDS011;60181;53.258;6.932;2023-07-13T08:04:38;12.70;;;2.80;;
65658;SDS011;60181;53.258;6.932;2023-07-13T08:08:42;12.70;;;2.80;;
65658;SDS011;60181;53.258;6.932;2023-07-13T08:12:46;9.60;;;2.80;;
65658;SDS011;60181;53.258;6.932;2023-07-13T08:16:50;9.60;;;2.80;;
65658;SDS011;60181;53.258;6.932;2023-07-13T08:20:54;7.70;;;2.60;;
65658;SDS011;60181;53.258;6.932;2023-07-13T08:24:59;7.70;;;2.60;;
65658;SDS011;60181;53.258;6.932;2023-07-13T08:29:02;7.70;;;2.60;;
65658;SDS011;60181;53.258;6.932;2023-07-13T08:33:06;9.10;;;2.70;;
65658;SDS011;60181;53.258;6.932;2023-07-13T08:37:10;9.10;;;2.70;;
65658;SDS011;60181;53.258;6.932;2023-07-13T08:41:15;9.90;;;2.90;;
65658;SDS011;60181;53.258;6.932;2023-07-13T08:45:26;9.90;;;2.90;;
65658;SDS011;60181;53.258;6.932;2023-07-13T08:49:22;9.90;;;2.90;;
65658;SDS011;60181;53.258;6.932;2023-07-13T08:53:30;9.50;;;2.80;;
65658;SDS011;60181;53.258;6.932;2023-07-13T08:57:31;9.50;;;2.80;;
65658;SDS011;60181;53.258;6.932;2023-07-13T09:01:45;8.00;;;2.50;;
65658;SDS011;60181;53.258;6.932;2023-07-13T09:05:38;8.00;;;2.50;;
65658;SDS011;60181;53.258;6.932;2023-07-13T09:13:50;7.90;;;2.30;;
65658;SDS011;60181;53.258;6.932;2023-07-13T09:17:51;7.90;;;2.30;;
65658;SDS011;60181;53.258;6.932;2023-07-13T09:21:54;6.80;;;2.60;;
65658;SDS011;60181;53.258;6.932;2023-07-13T09:26:05;6.80;;;2.60;;
65658;SDS011;60181;53.258;6.932;2023-07-13T09:30:15;6.30;;;2.50;;
65658;SDS011;60181;53.258;6.932;2023-07-13T09:34:09;6.30;;;2.50;;
65658;SDS011;60181;53.258;6.932;2023-07-13T09:38:14;6.30;;;2.50;;
65658;SDS011;60181;53.258;6.932;2023-07-13T09:42:15;7.00;;;2.70;;
65658;SDS011;60181;53.258;6.932;2023-07-13T09:46:21;7.00;;;2.70;;
65658;SDS011;60181;53.258;6.932;2023-07-13T09:50:22;8.50;;;2.60;;
65658;SDS011;60181;53.258;6.932;2023-07-13T09:54:26;8.50;;;2.60;;
65658;SDS011;60181;53.258;6.932;2023-07-13T09:58:30;8.50;;;2.60;;
65658;SDS011;60181;53.258;6.932;2023-07-13T10:02:35;6.90;;;2.70;;
65658;SDS011;60181;53.258;6.932;2023-07-13T10:06:38;6.90;;;2.70;;
65658;SDS011;60181;53.258;6.932;2023-07-13T10:10:42;8.20;;;2.90;;
65658;SDS011;60181;53.258;6.932;2023-07-13T10:14:46;8.20;;;2.90;;
65658;SDS011;60181;53.258;6.932;2023-07-13T10:18:53;8.20;;;2.90;;
65658;SDS011;60181;53.258;6.932;2023-07-13T10:22:55;5.50;;;2.60;;
65658;SDS011;60181;53.258;6.932;2023-07-13T10:27:02;5.50;;;2.60;;
65658;SDS011;60181;53.258;6.932;2023-07-13T10:31:02;7.20;;;2.80;;
65658;SDS011;60181;53.258;6.932;2023-07-13T10:35:09;7.20;;;2.80;;
65658;SDS011;60181;53.258;6.932;2023-07-13T10:39:14;7.20;;;2.80;;
65658;SDS011;60181;53.258;6.932;2023-07-13T10:43:16;8.80;;;3.10;;
65658;SDS011;60181;53.258;6.932;2023-07-13T10:47:18;8.80;;;3.10;;
65658;SDS011;60181;53.258;6.932;2023-07-13T10:51:22;8.70;;;3.60;;
65658;SDS011;60181;53.258;6.932;2023-07-13T10:55:36;8.70;;;3.60;;
65658;SDS011;60181;53.258;6.932;2023-07-13T10:59:30;8.70;;;3.60;;
65658;SDS011;60181;53.258;6.932;2023-07-13T11:03:35;12.30;;;3.90;;
65658;SDS011;60181;53.258;6.932;2023-07-13T11:07:51;12.30;;;3.90;;
65658;SDS011;60181;53.258;6.932;2023-07-13T11:11:42;8.10;;;3.60;;
65658;SDS011;60181;53.258;6.932;2023-07-13T11:15:47;8.10;;;3.60;;
65658;SDS011;60181;53.258;6.932;2023-07-13T11:19:51;8.10;;;3.60;;
65658;SDS011;60181;53.258;6.932;2023-07-13T11:24:01;10.30;;;4.10;;
65658;SDS011;60181;53.258;6.932;2023-07-13T11:28:14;10.30;;;4.10;;
65658;SDS011;60181;53.258;6.932;2023-07-13T11:32:20;10.70;;;4.10;;
65658;SDS011;60181;53.258;6.932;2023-07-13T11:36:07;10.70;;;4.10;;
65658;SDS011;60181;53.258;6.932;2023-07-13T11:40:16;8.40;;;3.90;;
65658;SDS011;60181;53.258;6.932;2023-07-13T11:44:16;8.40;;;3.90;;
65658;SDS011;60181;53.258;6.932;2023-07-13T11:48:35;8.40;;;3.90;;
65658;SDS011;60181;53.258;6.932;2023-07-13T11:52:30;7.70;;;3.40;;
65658;SDS011;60181;53.258;6.932;2023-07-13T11:56:26;7.70;;;3.40;;
65658;SDS011;60181;53.258;6.932;2023-07-13T12:00:30;6.20;;;2.60;;
65658;SDS011;60181;53.258;6.932;2023-07-13T12:04:34;6.20;;;2.60;;
65658;SDS011;60181;53.258;6.932;2023-07-13T12:08:38;6.20;;;2.60;;
65658;SDS011;60181;53.258;6.932;2023-07-13T12:12:50;7.60;;;2.70;;
65658;SDS011;60181;53.258;6.932;2023-07-13T12:16:46;7.60;;;2.70;;
65658;SDS011;60181;53.258;6.932;2023-07-13T12:20:50;9.40;;;2.80;;
65658;SDS011;60181;53.258;6.932;2023-07-13T12:24:54;9.40;;;2.80;;
65658;SDS011;60181;53.258;6.932;2023-07-13T12:28:59;9.40;;;2.80;;
65658;SDS011;60181;53.258;6.932;2023-07-13T12:33:06;7.20;;;2.80;;
65658;SDS011;60181;53.258;6.932;2023-07-13T12:37:08;7.20;;;2.80;;
65658;SDS011;60181;53.258;6.932;2023-07-13T12:41:10;7.30;;;2.90;;
65658;SDS011;60181;53.258;6.932;2023-07-13T12:45:27;7.30;;;2.90;;
65658;SDS011;60181;53.258;6.932;2023-07-13T12:49:18;7.30;;;2.90;;
65658;SDS011;60181;53.258;6.932;2023-07-13T12:53:23;4.50;;;2.60;;
65658;SDS011;60181;53.258;6.932;2023-07-13T12:57:26;4.50;;;2.60;;
65658;SDS011;60181;53.258;6.932;2023-07-13T13:01:34;7.70;;;3.30;;
65658;SDS011;60181;53.258;6.932;2023-07-13T13:05:34;7.70;;;3.30;;
65658;SDS011;60181;53.258;6.932;2023-07-13T13:09:38;7.70;;;3.30;;
65658;SDS011;60181;53.258;6.932;2023-07-13T13:13:42;8.50;;;3.50;;
65658;SDS011;60181;53.258;6.932;2023-07-13T13:17:46;8.50;;;3.50;;
65658;SDS011;60181;53.258;6.932;2023-07-13T13:21:50;9.20;;;3.60;;
65658;SDS011;60181;53.258;6.932;2023-07-13T13:25:54;9.20;;;3.60;;
65658;SDS011;60181;53.258;6.932;2023-07-13T13:29:59;9.20;;;3.60;;
65658;SDS011;60181;53.258;6.932;2023-07-13T13:34:02;6.50;;;3.20;;
65658;SDS011;60181;53.258;6.932;2023-07-13T13:38:15;6.50;;;3.20;;
65658;SDS011;60181;53.258;6.932;2023-07-13T13:42:10;6.40;;;2.90;;
65658;SDS011;60181;53.258;6.932;2023-07-13T13:46:17;6.40;;;2.90;;
65658;SDS011;60181;53.258;6.932;2023-07-13T13:50:19;6.80;;;3.30;;
65658;SDS011;60181;53.258;6.932;2023-07-13T13:54:22;6.80;;;3.30;;
65658;SDS011;60181;53.258;6.932;2023-07-13T13:58:26;6.80;;;3.30;;
65658;SDS011;60181;53.258;6.932;2023-07-13T14:02:30;8.30;;;3.80;;
65658;SDS011;60181;53.258;6.932;2023-07-13T14:06:34;8.30;;;3.80;;
65658;SDS011;60181;53.258;6.932;2023-07-13T14:10:38;10.10;;;4.00;;
65658;SDS011;60181;53.258;6.932;2023-07-13T14:14:42;10.10;;;4.00;;
65658;SDS011;60181;53.258;6.932;2023-07-13T14:18:46;10.10;;;4.00;;
65658;SDS011;60181;53.258;6.932;2023-07-13T14:22:50;8.10;;;3.30;;
65658;SDS011;60181;53.258;6.932;2023-07-13T14:26:54;8.10;;;3.30;;
65658;SDS011;60181;53.258;6.932;2023-07-13T14:30:58;7.80;;;3.50;;
65658;SDS011;60181;53.258;6.932;2023-07-13T14:35:02;7.80;;;3.50;;
65658;SDS011;60181;53.258;6.932;2023-07-13T14:39:12;7.80;;;3.50;;
65658;SDS011;60181;53.258;6.932;2023-07-13T14:43:13;10.60;;;3.20;;
65658;SDS011;60181;53.258;6.932;2023-07-13T14:47:14;10.60;;;3.20;;
65658;SDS011;60181;53.258;6.932;2023-07-13T14:51:18;13.00;;;3.70;;
65658;SDS011;60181;53.258;6.932;2023-07-13T14:55:22;13.00;;;3.70;;
65658;SDS011;60181;53.258;6.932;2023-07-13T14:59:26;13.00;;;3.70;;
65658;SDS011;60181;53.258;6.932;2023-07-13T15:03:30;7.30;;;3.00;;
65658;SDS011;60181;53.258;6.932;2023-07-13T15:07:34;7.30;;;3.00;;
65658;SDS011;60181;53.258;6.932;2023-07-13T15:11:38;8.20;;;3.00;;
65658;SDS011;60181;53.258;6.932;2023-07-13T15:15:43;8.20;;;3.00;;
65658;SDS011;60181;53.258;6.932;2023-07-13T15:19:46;8.20;;;3.00;;
65658;SDS011;60181;53.258;6.932;2023-07-13T15:23:50;9.00;;;3.10;;
65658;SDS011;60181;53.258;6.932;2023-07-13T15:27:54;9.00;;;3.10;;
65658;SDS011;60181;53.258;6.932;2023-07-13T15:31:58;6.00;;;2.80;;
65658;SDS011;60181;53.258;6.932;2023-07-13T15:36:02;6.00;;;2.80;;
65658;SDS011;60181;53.258;6.932;2023-07-13T15:40:06;6.00;;;2.80;;
65658;SDS011;60181;53.258;6.932;2023-07-13T15:44:28;8.20;;;3.00;;
65658;SDS011;60181;53.258;6.932;2023-07-13T15:48:20;8.20;;;3.00;;
65658;SDS011;60181;53.258;6.932;2023-07-13T15:52:18;7.30;;;3.00;;
65658;SDS011;60181;53.258;6.932;2023-07-13T15:56:25;7.30;;;3.00;;
65658;SDS011;60181;53.258;6.932;2023-07-13T16:00:26;6.20;;;2.80;;
65658;SDS011;60181;53.258;6.932;2023-07-13T16:04:29;6.20;;;2.80;;
65658;SDS011;60181;53.258;6.932;2023-07-13T16:08:33;6.20;;;2.80;;
65658;SDS011;60181;53.258;6.932;2023-07-13T16:12:37;7.30;;;2.90;;
65658;SDS011;60181;53.258;6.932;2023-07-13T16:16:42;7.30;;;2.90;;
65658;SDS011;60181;53.258;6.932;2023-07-13T16:20:46;7.90;;;3.00;;
65658;SDS011;60181;53.258;6.932;2023-07-13T16:24:49;7.90;;;3.00;;
65658;SDS011;60181;53.258;6.932;2023-07-13T16:28:54;7.90;;;3.00;;
65658;SDS011;60181;53.258;6.932;2023-07-13T16:32:58;7.20;;;3.00;;
65658;SDS011;60181;53.258;6.932;2023-07-13T16:37:02;7.20;;;3.00;;
65658;SDS011;60181;53.258;6.932;2023-07-13T16:41:05;7.40;;;2.70;;
65658;SDS011;60181;53.258;6.932;2023-07-13T16:45:11;7.40;;;2.70;;
65658;SDS011;60181;53.258;6.932;2023-07-13T16:49:21;7.40;;;2.70;;
65658;SDS011;60181;53.258;6.932;2023-07-13T16:53:18;7.90;;;2.80;;
65658;SDS011;60181;53.258;6.932;2023-07-13T16:57:23;7.90;;;2.80;;
65658;SDS011;60181;53.258;6.932;2023-07-13T17:01:25;10.50;;;3.10;;
65658;SDS011;60181;53.258;6.932;2023-07-13T17:05:30;10.50;;;3.10;;
65658;SDS011;60181;53.258;6.932;2023-07-13T17:09:33;10.50;;;3.10;;
65658;SDS011;60181;53.258;6.932;2023-07-13T17:13:37;9.00;;;3.10;;
65658;SDS011;60181;53.258;6.932;2023-07-13T17:17:42;9.00;;;3.10;;
65658;SDS011;60181;53.258;6.932;2023-07-13T17:21:46;11.50;;;3.60;;
65658;SDS011;60181;53.258;6.932;2023-07-13T17:25:50;11.50;;;3.60;;
65658;SDS011;60181;53.258;6.932;2023-07-13T17:29:53;11.50;;;3.60;;
65658;SDS011;60181;53.258;6.932;2023-07-13T17:33:57;12.40;;;3.80;;
65658;SDS011;60181;53.258;6.932;2023-07-13T17:38:02;12.40;;;3.80;;
65658;SDS011;60181;53.258;6.932;2023-07-13T17:42:06;11.70;;;4.00;;
65658;SDS011;60181;53.258;6.932;2023-07-13T17:46:16;11.70;;;4.00;;
65658;SDS011;60181;53.258;6.932;2023-07-13T17:50:14;13.00;;;4.10;;
65658;SDS011;60181;53.258;6.932;2023-07-13T17:54:17;13.00;;;4.10;;
65658;SDS011;60181;53.258;6.932;2023-07-13T17:58:21;13.00;;;4.10;;
65658;SDS011;60181;53.258;6.932;2023-07-13T18:02:25;10.00;;;4.30;;
65658;SDS011;60181;53.258;6.932;2023-07-13T18:06:33;10.00;;;4.30;;
65658;SDS011;60181;53.258;6.932;2023-07-13T18:10:33;10.20;;;4.20;;
65658;SDS011;60181;53.258;6.932;2023-07-13T18:14:37;10.20;;;4.20;;
65658;SDS011;60181;53.258;6.932;2023-07-13T18:18:41;10.20;;;4.20;;
65658;SDS011;60181;53.258;6.932;2023-07-13T18:22:45;10.30;;;4.40;;
65658;SDS011;60181;53.258;6.932;2023-07-13T18:26:49;10.30;;;4.40;;
65658;SDS011;60181;53.258;6.932;2023-07-13T18:30:56;9.70;;;4.50;;
65658;SDS011;60181;53.258;6.932;2023-07-13T18:34:57;9.70;;;4.50;;
65658;SDS011;60181;53.258;6.932;2023-07-13T18:39:01;9.70;;;4.50;;
65658;SDS011;60181;53.258;6.932;2023-07-13T18:43:05;10.10;;;4.40;;
65658;SDS011;60181;53.258;6.932;2023-07-13T18:47:13;10.10;;;4.40;;
65658;SDS011;60181;53.258;6.932;2023-07-13T18:51:14;8.60;;;4.80;;
65658;SDS011;60181;53.258;6.932;2023-07-13T18:55:18;8.60;;;4.80;;
65658;SDS011;60181;53.258;6.932;2023-07-13T18:59:21;8.60;;;4.80;;
65658;SDS011;60181;53.258;6.932;2023-07-13T19:03:32;10.30;;;5.00;;
65658;SDS011;60181;53.258;6.932;2023-07-13T19:07:29;10.30;;;5.00;;
65658;SDS011;60181;53.258;6.932;2023-07-13T19:11:33;8.00;;;4.60;;
65658;SDS011;60181;53.258;6.932;2023-07-13T19:15:37;8.00;;;4.60;;
65658;SDS011;60181;53.258;6.932;2023-07-13T19:19:41;8.00;;;4.60;;
65658;SDS011;60181;53.258;6.932;2023-07-13T19:23:45;9.50;;;5.10;;
65658;SDS011;60181;53.258;6.932;2023-07-13T19:27:52;9.50;;;5.10;;
65658;SDS011;60181;53.258;6.932;2023-07-13T19:31:53;11.20;;;5.10;;
65658;SDS011;60181;53.258;6.932;2023-07-13T19:35:57;11.20;;;5.10;;
65658;SDS011;60181;53.258;6.932;2023-07-13T19:40:02;11.20;;;5.10;;
65658;SDS011;60181;53.258;6.932;2023-07-13T19:44:08;9.20;;;4.80;;
65658;SDS011;60181;53.258;6.932;2023-07-13T19:48:09;9.20;;;4.80;;
65658;SDS011;60181;53.258;6.932;2023-07-13T19:52:17;8.40;;;4.50;;
65658;SDS011;60181;53.258;6.932;2023-07-13T19:56:17;8.40;;;4.50;;
65658;SDS011;60181;53.258;6.932;2023-07-13T20:00:22;9.30;;;4.70;;
65658;SDS011;60181;53.258;6.932;2023-07-13T20:04:26;9.30;;;4.70;;
65658;SDS011;60181;53.258;6.932;2023-07-13T20:08:29;9.30;;;4.70;;
65658;SDS011;60181;53.258;6.932;2023-07-13T20:12:35;8.60;;;4.40;;
65658;SDS011;60181;53.258;6.932;2023-07-13T20:16:37;8.60;;;4.40;;
65658;SDS011;60181;53.258;6.932;2023-07-13T20:20:43;7.10;;;4.30;;
65658;SDS011;60181;53.258;6.932;2023-07-13T20:24:45;7.10;;;4.30;;
65658;SDS011;60181;53.258;6.932;2023-07-13T20:28:49;7.10;;;4.30;;
65658;SDS011;60181;53.258;6.932;2023-07-13T20:32:53;7.50;;;4.10;;
65658;SDS011;60181;53.258;6.932;2023-07-13T20:36:57;7.50;;;4.10;;
65658;SDS011;60181;53.258;6.932;2023-07-13T20:41:01;7.30;;;4.20;;
65658;SDS011;60181;53.258;6.932;2023-07-13T20:45:06;7.30;;;4.20;;
65658;SDS011;60181;53.258;6.932;2023-07-13T20:49:10;7.30;;;4.20;;
65658;SDS011;60181;53.258;6.932;2023-07-13T20:53:13;8.40;;;4.40;;
65658;SDS011;60181;53.258;6.932;2023-07-13T20:57:17;8.40;;;4.40;;
65658;SDS011;60181;53.258;6.932;2023-07-13T21:01:31;10.10;;;4.10;;
65658;SDS011;60181;53.258;6.932;2023-07-13T21:05:27;10.10;;;4.10;;
65658;SDS011;60181;53.258;6.932;2023-07-13T21:09:29;10.10;;;4.10;;
65658;SDS011;60181;53.258;6.932;2023-07-13T21:13:33;10.40;;;4.10;;
65658;SDS011;60181;53.258;6.932;2023-07-13T21:17:37;10.40;;;4.10;;
65658;SDS011;60181;53.258;6.932;2023-07-13T21:21:41;9.50;;;4.00;;
65658;SDS011;60181;53.258;6.932;2023-07-13T21:25:45;9.50;;;4.00;;
65658;SDS011;60181;53.258;6.932;2023-07-13T21:29:49;9.50;;;4.00;;
65658;SDS011;60181;53.258;6.932;2023-07-13T21:33:54;10.00;;;4.20;;
65658;SDS011;60181;53.258;6.932;2023-07-13T21:37:57;10.00;;;4.20;;
65658;SDS011;60181;53.258;6.932;2023-07-13T21:42:01;8.20;;;4.10;;
65658;SDS011;60181;53.258;6.932;2023-07-13T21:46:08;8.20;;;4.10;;
65658;SDS011;60181;53.258;6.932;2023-07-13T21:50:09;11.80;;;3.80;;
65658;SDS011;60181;53.258;6.932;2023-07-13T21:54:14;11.80;;;3.80;;
65658;SDS011;60181;53.258;6.932;2023-07-13T21:58:25;11.80;;;3.80;;
65658;SDS011;60181;53.258;6.932;2023-07-13T22:02:21;11.20;;;3.90;;
65658;SDS011;60181;53.258;6.932;2023-07-13T22:06:26;11.20;;;3.90;;
65658;SDS011;60181;53.258;6.932;2023-07-13T22:10:29;10.00;;;4.10;;
65658;SDS011;60181;53.258;6.932;2023-07-13T22:14:33;10.00;;;4.10;;
65658;SDS011;60181;53.258;6.932;2023-07-13T22:18:37;10.00;;;4.10;;
65658;SDS011;60181;53.258;6.932;2023-07-13T22:22:41;9.10;;;4.30;;
65658;SDS011;60181;53.258;6.932;2023-07-13T22:26:45;9.10;;;4.30;;
65658;SDS011;60181;53.258;6.932;2023-07-13T22:30:50;9.40;;;3.80;;
65658;SDS011;60181;53.258;6.932;2023-07-13T22:34:53;9.40;;;3.80;;
65658;SDS011;60181;53.258;6.932;2023-07-13T22:38:57;9.40;;;3.80;;
65658;SDS011;60181;53.258;6.932;2023-07-13T22:43:04;8.10;;;3.90;;
65658;SDS011;60181;53.258;6.932;2023-07-13T22:47:05;8.10;;;3.90;;
65658;SDS011;60181;53.258;6.932;2023-07-13T22:51:13;10.40;;;3.90;;
65658;SDS011;60181;53.258;6.932;2023-07-13T22:55:13;10.40;;;3.90;;
65658;SDS011;60181;53.258;6.932;2023-07-13T22:59:17;10.40;;;3.90;;
65658;SDS011;60181;53.258;6.932;2023-07-13T23:03:21;8.20;;;4.10;;
65658;SDS011;60181;53.258;6.932;2023-07-13T23:07:25;8.20;;;4.10;;
65658;SDS011;60181;53.258;6.932;2023-07-13T23:11:29;11.30;;;4.60;;
65658;SDS011;60181;53.258;6.932;2023-07-13T23:15:33;11.30;;;4.60;;
65658;SDS011;60181;53.258;6.932;2023-07-13T23:19:37;11.30;;;4.60;;
65658;SDS011;60181;53.258;6.932;2023-07-13T23:23:41;12.40;;;4.40;;
65658;SDS011;60181;53.258;6.932;2023-07-13T23:27:47;12.40;;;4.40;;
65658;SDS011;60181;53.258;6.932;2023-07-13T23:31:49;14.40;;;4.20;;
65658;SDS011;60181;53.258;6.932;2023-07-13T23:35:54;14.40;;;4.20;;
65658;SDS011;60181;53.258;6.932;2023-07-13T23:39:57;14.40;;;4.20;;
65658;SDS011;60181;53.258;6.932;2023-07-13T23:44:01;14.60;;;4.50;;
65658;SDS011;60181;53.258;6.932;2023-07-13T23:48:08;14.60;;;4.50;;
65658;SDS011;60181;53.258;6.932;2023-07-13T23:52:10;9.70;;;4.20;;
65658;SDS011;60181;53.258;6.932;2023-07-13T23:56:20;9.70;;;4.20;;
